sensor_id;sensor_type;location;lat;lon;timestamp;pressure;altitude;pressure_sealevel;temperature;humidity
7433;BME280;32233;49.500;7.764;2023-07-16T00:01:45;98265.41;;;16.42;100.00
7433;BME280;32233;49.500;7.764;2023-07-16T00:04:12;98269.16;;;16.41;100.00
7433;BME280;32233;49.500;7.764;2023-07-16T00:06:38;98269.38;;;16.40;100.00
7433;BME280;32233;49.500;7.764;2023-07-16T00:09:05;98272.03;;;16.40;100.00
7433;BME280;32233;49.500;7.764;2023-07-16T00:11:32;98274.22;;;16.26;100.00
7433;BME280;32233;49.500;7.764;2023-07-16T00:13:59;98259.50;;;16.23;100.00
7433;BME280;32233;49.500;7.764;2023-07-16T00:16:25;98261.38;;;16.23;100.00
7433;BME280;32233;49.500;7.764;2023-07-16T00:18:52;98237.38;;;16.23;100.00
7433;BME280;32233;49.500;7.764;2023-07-16T00:21:18;98229.69;;;16.26;100.00
7433;BME280;32233;49.500;7.764;2023-07-16T00:23:45;98237.22;;;16.29;100.00
7433;BME280;32233;49.500;7.764;2023-07-16T00:26:12;98228.41;;;16.29;100.00
7433;BME280;32233;49.500;7.764;2023-07-16T00:28:39;98221.63;;;16.21;100.00
7433;BME280;32233;49.500;7.764;2023-07-16T00:31:06;98245.50;;;16.16;100.00
7433;BME280;32233;49.500;7.764;2023-07-16T00:33:32;98266.03;;;16.16;100.00
7433;BME280;32233;49.500;7.764;2023-07-16T00:36:00;98241.16;;;16.10;100.00
7433;BME280;32233;49.500;7.764;2023-07-16T00:38:28;98213.22;;;16.13;100.00
7433;BME280;32233;49.500;7.764;2023-07-16T00:40:54;98229.91;;;16.08;100.00
7433;BME280;32233;49.500;7.764;2023-07-16T00:43:21;98241.63;;;16.07;100.00
7433;BME280;32233;49.500;7.764;2023-07-16T00:45:48;98249.25;;;16.15;100.00
7433;BME280;32233;49.500;7.764;2023-07-16T00:48:15;98256.44;;;16.15;100.00
7433;BME280;32233;49.500;7.764;2023-07-16T00:50:42;98261.34;;;16.06;100.00
7433;BME280;32233;49.500;7.764;2023-07-16T00:53:10;98262.75;;;16.08;100.00
7433;BME280;32233;49.500;7.764;2023-07-16T00:55:36;98272.41;;;15.98;100.00
7433;BME280;32233;49.500;7.764;2023-07-16T00:58:05;98271.44;;;16.04;100.00
7433;BME280;32233;49.500;7.764;2023-07-16T01:00:36;98285.28;;;16.18;100.00
7433;BME280;32233;49.500;7.764;2023-07-16T01:03:05;98286.97;;;16.07;100.00
7433;BME280;32233;49.500;7.764;2023-07-16T01:05:57;98285.34;;;16.06;100.00
7433;BME280;32233;49.500;7.764;2023-07-16T01:08:54;98293.44;;;16.11;100.00
7433;BME280;32233;49.500;7.764;2023-07-16T01:11:18;98293.22;;;16.13;100.00
7433;BME280;32233;49.500;7.764;2023-07-16T01:13:44;98296.75;;;16.18;100.00
7433;BME280;32233;49.500;7.764;2023-07-16T01:16:18;98289.41;;;16.08;100.00
7433;BME280;32233;49.500;7.764;2023-07-16T01:18:46;98305.28;;;16.03;100.00
7433;BME280;32233;49.500;7.764;2023-07-16T01:21:12;98315.56;;;16.12;100.00
7433;BME280;32233;49.500;7.764;2023-07-16T01:26:32;98314.34;;;16.02;100.00
7433;BME280;32233;49.500;7.764;2023-07-16T01:29:36;98316.72;;;15.87;100.00
7433;BME280;32233;49.500;7.764;2023-07-16T01:32:05;98319.13;;;15.72;100.00
7433;BME280;32233;49.500;7.764;2023-07-16T01:34:36;98321.09;;;15.76;100.00
7433;BME280;32233;49.500;7.764;2023-07-16T01:37:03;98319.22;;;15.77;100.00
7433;BME280;32233;49.500;7.764;2023-07-16T01:39:31;98324.13;;;15.68;100.00
7433;BME280;32233;49.500;7.764;2023-07-16T01:42:02;98325.81;;;15.63;100.00
7433;BME280;32233;49.500;7.764;2023-07-16T01:44:28;98327.47;;;15.64;100.00
7433;BME280;32233;49.500;7.764;2023-07-16T01:47:13;98330.94;;;15.64;100.00
7433;BME280;32233;49.500;7.764;2023-07-16T01:49:41;98324.94;;;15.57;100.00
7433;BME280;32233;49.500;7.764;2023-07-16T01:52:09;98325.53;;;15.47;100.00
7433;BME280;32233;49.500;7.764;2023-07-16T01:54:36;98335.84;;;15.55;100.00
7433;BME280;32233;49.500;7.764;2023-07-16T01:57:03;98337.22;;;15.46;100.00
7433;BME280;32233;49.500;7.764;2023-07-16T01:59:30;98336.38;;;15.57;100.00
7433;BME280;32233;49.500;7.764;2023-07-16T02:01:56;98347.50;;;15.54;100.00
7433;BME280;32233;49.500;7.764;2023-07-16T02:04:23;98358.53;;;15.46;100.00
7433;BME280;32233;49.500;7.764;2023-07-16T02:06:49;98347.06;;;15.46;100.00
7433;BME280;32233;49.500;7.764;2023-07-16T02:09:20;98355.78;;;15.41;100.00
7433;BME280;32233;49.500;7.764;2023-07-16T02:11:46;98348.38;;;15.43;100.00
7433;BME280;32233;49.500;7.764;2023-07-16T02:14:13;98346.28;;;15.33;100.00
7433;BME280;32233;49.500;7.764;2023-07-16T02:16:41;98341.19;;;15.32;100.00
7433;BME280;32233;49.500;7.764;2023-07-16T02:19:07;98353.56;;;15.26;100.00
7433;BME280;32233;49.500;7.764;2023-07-16T02:21:34;98354.53;;;15.20;100.00
7433;BME280;32233;49.500;7.764;2023-07-16T02:24:01;98353.25;;;15.23;100.00
7433;BME280;32233;49.500;7.764;2023-07-16T02:26:28;98358.09;;;15.14;100.00
7433;BME280;32233;49.500;7.764;2023-07-16T02:28:54;98360.22;;;15.00;100.00
7433;BME280;32233;49.500;7.764;2023-07-16T02:31:21;98358.13;;;14.91;100.00
7433;BME280;32233;49.500;7.764;2023-07-16T02:33:47;98360.91;;;14.96;100.00
7433;BME280;32233;49.500;7.764;2023-07-16T02:36:14;98361.81;;;14.90;100.00
7433;BME280;32233;49.500;7.764;2023-07-16T02:38:41;98361.94;;;14.83;100.00
7433;BME280;32233;49.500;7.764;2023-07-16T02:41:07;98364.81;;;14.81;100.00
7433;BME280;32233;49.500;7.764;2023-07-16T02:43:35;98369.22;;;14.76;100.00
7433;BME280;32233;49.500;7.764;2023-07-16T02:46:01;98365.41;;;14.72;100.00
7433;BME280;32233;49.500;7.764;2023-07-16T02:48:28;98375.78;;;14.73;100.00
7433;BME280;32233;49.500;7.764;2023-07-16T02:50:54;98371.97;;;14.69;100.00
7433;BME280;32233;49.500;7.764;2023-07-16T02:53:21;98374.63;;;14.69;100.00
7433;BME280;32233;49.500;7.764;2023-07-16T02:55:47;98375.34;;;14.76;100.00
7433;BME280;32233;49.500;7.764;2023-07-16T02:58:14;98380.91;;;14.75;100.00
7433;BME280;32233;49.500;7.764;2023-07-16T03:00:42;98390.41;;;14.82;100.00
7433;BME280;32233;49.500;7.764;2023-07-16T03:03:09;98389.34;;;14.83;100.00
7433;BME280;32233;49.500;7.764;2023-07-16T03:05:36;98386.94;;;14.82;100.00
7433;BME280;32233;49.500;7.764;2023-07-16T03:08:02;98393.06;;;14.82;100.00
7433;BME280;32233;49.500;7.764;2023-07-16T03:10:29;98397.91;;;14.85;100.00
7433;BME280;32233;49.500;7.764;2023-07-16T03:12:56;98404.63;;;14.76;100.00
7433;BME280;32233;49.500;7.764;2023-07-16T03:15:22;98412.72;;;14.81;100.00
7433;BME280;32233;49.500;7.764;2023-07-16T03:17:49;98399.91;;;14.90;100.00
7433;BME280;32233;49.500;7.764;2023-07-16T03:20:16;98407.06;;;14.90;100.00
7433;BME280;32233;49.500;7.764;2023-07-16T03:22:42;98406.03;;;14.91;100.00
7433;BME280;32233;49.500;7.764;2023-07-16T03:25:09;98403.91;;;14.69;100.00
7433;BME280;32233;49.500;7.764;2023-07-16T03:27:36;98408.22;;;14.70;100.00
7433;BME280;32233;49.500;7.764;2023-07-16T03:30:03;98406.56;;;14.69;100.00
7433;BME280;32233;49.500;7.764;2023-07-16T03:32:30;98412.72;;;14.70;100.00
7433;BME280;32233;49.500;7.764;2023-07-16T03:35:17;98423.69;;;14.61;100.00
7433;BME280;32233;49.500;7.764;2023-07-16T03:37:44;98422.28;;;14.59;100.00
7433;BME280;32233;49.500;7.764;2023-07-16T03:40:15;98425.19;;;14.57;100.00
7433;BME280;32233;49.500;7.764;2023-07-16T03:42:44;98428.72;;;14.51;100.00
7433;BME280;32233;49.500;7.764;2023-07-16T03:45:10;98428.22;;;14.43;100.00
7433;BME280;32233;49.500;7.764;2023-07-16T03:47:37;98427.00;;;14.57;100.00
7433;BME280;32233;49.500;7.764;2023-07-16T03:50:05;98442.75;;;14.40;100.00
7433;BME280;32233;49.500;7.764;2023-07-16T03:52:31;98437.31;;;14.35;100.00
7433;BME280;32233;49.500;7.764;2023-07-16T03:54:58;98447.59;;;14.31;100.00
7433;BME280;32233;49.500;7.764;2023-07-16T03:57:28;98445.84;;;14.25;100.00
7433;BME280;32233;49.500;7.764;2023-07-16T03:59:54;98447.03;;;14.29;100.00
7433;BME280;32233;49.500;7.764;2023-07-16T04:02:21;98449.22;;;14.32;100.00
7433;BME280;32233;49.500;7.764;2023-07-16T04:04:48;98454.41;;;14.27;100.00
7433;BME280;32233;49.500;7.764;2023-07-16T04:07:14;98456.84;;;14.29;100.00
7433;BME280;32233;49.500;7.764;2023-07-16T04:09:41;98462.75;;;14.31;100.00
7433;BME280;32233;49.500;7.764;2023-07-16T04:12:08;98468.34;;;14.41;100.00
7433;BME280;32233;49.500;7.764;2023-07-16T04:14:34;98471.88;;;14.53;100.00
7433;BME280;32233;49.500;7.764;2023-07-16T04:17:01;98465.44;;;14.43;100.00
7433;BME280;32233;49.500;7.764;2023-07-16T04:19:28;98468.41;;;14.53;100.00
7433;BME280;32233;49.500;7.764;2023-07-16T04:21:54;98479.28;;;14.51;100.00
7433;BME280;32233;49.500;7.764;2023-07-16T04:24:21;98475.34;;;14.54;100.00
7433;BME280;32233;49.500;7.764;2023-07-16T04:26:47;98480.84;;;14.71;100.00
7433;BME280;32233;49.500;7.764;2023-07-16T04:29:14;98485.94;;;14.72;100.00
7433;BME280;32233;49.500;7.764;2023-07-16T04:31:41;98486.06;;;14.77;100.00
7433;BME280;32233;49.500;7.764;2023-07-16T04:34:07;98491.28;;;14.84;100.00
7433;BME280;32233;49.500;7.764;2023-07-16T04:36:34;98487.94;;;14.89;100.00
7433;BME280;32233;49.500;7.764;2023-07-16T04:39:00;98482.72;;;14.82;100.00
7433;BME280;32233;49.500;7.764;2023-07-16T04:41:27;98487.13;;;14.88;100.00
7433;BME280;32233;49.500;7.764;2023-07-16T04:43:54;98484.16;;;15.08;100.00
7433;BME280;32233;49.500;7.764;2023-07-16T04:46:20;98487.75;;;15.14;100.00
7433;BME280;32233;49.500;7.764;2023-07-16T04:48:47;98487.91;;;15.19;100.00
7433;BME280;32233;49.500;7.764;2023-07-16T04:51:14;98488.22;;;15.10;100.00
7433;BME280;32233;49.500;7.764;2023-07-16T04:53:40;98486.50;;;15.16;100.00
7433;BME280;32233;49.500;7.764;2023-07-16T04:56:14;98492.50;;;15.11;100.00
7433;BME280;32233;49.500;7.764;2023-07-16T04:58:42;98496.22;;;15.34;100.00
7433;BME280;32233;49.500;7.764;2023-07-16T05:01:09;98503.66;;;15.32;100.00
7433;BME280;32233;49.500;7.764;2023-07-16T05:03:36;98501.03;;;15.02;100.00
7433;BME280;32233;49.500;7.764;2023-07-16T05:06:03;98507.78;;;15.16;100.00
7433;BME280;32233;49.500;7.764;2023-07-16T05:08:29;98501.06;;;15.14;100.00
7433;BME280;32233;49.500;7.764;2023-07-16T05:10:56;98507.34;;;15.19;100.00
7433;BME280;32233;49.500;7.764;2023-07-16T05:13:22;98512.91;;;15.29;100.00
7433;BME280;32233;49.500;7.764;2023-07-16T05:15:49;98515.66;;;15.11;100.00
7433;BME280;32233;49.500;7.764;2023-07-16T05:18:16;98513.13;;;15.16;100.00
7433;BME280;32233;49.500;7.764;2023-07-16T05:20:42;98519.25;;;15.17;100.00
7433;BME280;32233;49.500;7.764;2023-07-16T05:23:10;98520.31;;;15.27;100.00
7433;BME280;32233;49.500;7.764;2023-07-16T05:25:36;98523.56;;;15.41;100.00
7433;BME280;32233;49.500;7.764;2023-07-16T05:28:03;98524.50;;;15.47;100.00
7433;BME280;32233;49.500;7.764;2023-07-16T05:30:30;98535.72;;;15.37;100.00
7433;BME280;32233;49.500;7.764;2023-07-16T05:32:56;98530.50;;;15.30;100.00
7433;BME280;32233;49.500;7.764;2023-07-16T05:35:23;98537.91;;;15.28;100.00
7433;BME280;32233;49.500;7.764;2023-07-16T05:37:49;98538.00;;;15.22;100.00
7433;BME280;32233;49.500;7.764;2023-07-16T05:40:16;98543.34;;;15.22;100.00
7433;BME280;32233;49.500;7.764;2023-07-16T05:42:42;98541.16;;;15.30;100.00
7433;BME280;32233;49.500;7.764;2023-07-16T05:45:09;98546.72;;;15.41;100.00
7433;BME280;32233;49.500;7.764;2023-07-16T05:47:36;98547.88;;;15.33;100.00
7433;BME280;32233;49.500;7.764;2023-07-16T05:50:02;98550.22;;;15.53;100.00
7433;BME280;32233;49.500;7.764;2023-07-16T05:52:29;98548.25;;;15.48;100.00
7433;BME280;32233;49.500;7.764;2023-07-16T05:54:56;98543.53;;;15.74;100.00
7433;BME280;32233;49.500;7.764;2023-07-16T05:57:22;98549.97;;;16.94;100.00
7433;BME280;32233;49.500;7.764;2023-07-16T05:59:49;98544.16;;;16.28;100.00
7433;BME280;32233;49.500;7.764;2023-07-16T06:02:15;98541.34;;;16.46;100.00
7433;BME280;32233;49.500;7.764;2023-07-16T06:04:42;98550.03;;;17.61;100.00
7433;BME280;32233;49.500;7.764;2023-07-16T06:07:08;98545.69;;;18.32;99.88
7433;BME280;32233;49.500;7.764;2023-07-16T06:09:35;98551.72;;;19.80;93.33
7433;BME280;32233;49.500;7.764;2023-07-16T06:12:01;98547.44;;;18.66;91.55
7433;BME280;32233;49.500;7.764;2023-07-16T06:14:28;98563.06;;;18.30;95.18
7433;BME280;32233;49.500;7.764;2023-07-16T06:16:54;98553.44;;;17.90;100.00
7433;BME280;32233;49.500;7.764;2023-07-16T06:19:21;98551.41;;;17.97;98.30
7433;BME280;32233;49.500;7.764;2023-07-16T06:21:48;98551.03;;;17.72;99.25
7433;BME280;32233;49.500;7.764;2023-07-16T06:24:14;98556.47;;;19.73;89.67
7433;BME280;32233;49.500;7.764;2023-07-16T06:26:43;98551.25;;;20.46;78.60
7433;BME280;32233;49.500;7.764;2023-07-16T06:29:09;98554.69;;;21.55;76.93
7433;BME280;32233;49.500;7.764;2023-07-16T06:31:36;98554.09;;;20.97;75.11
7433;BME280;32233;49.500;7.764;2023-07-16T06:34:02;98547.75;;;19.23;85.13
7433;BME280;32233;49.500;7.764;2023-07-16T06:36:29;98557.22;;;19.04;90.25
7433;BME280;32233;49.500;7.764;2023-07-16T06:38:55;98562.63;;;18.60;91.02
7433;BME280;32233;49.500;7.764;2023-07-16T06:41:22;98561.47;;;18.12;97.20
7433;BME280;32233;49.500;7.764;2023-07-16T06:43:48;98550.78;;;20.59;83.26
7433;BME280;32233;49.500;7.764;2023-07-16T06:46:15;98553.84;;;20.31;74.62
7433;BME280;32233;49.500;7.764;2023-07-16T06:48:42;98573.56;;;18.37;91.96
7433;BME280;32233;49.500;7.764;2023-07-16T06:51:08;98567.53;;;19.49;84.32
7433;BME280;32233;49.500;7.764;2023-07-16T06:53:35;98568.72;;;18.99;85.55
7433;BME280;32233;49.500;7.764;2023-07-16T06:56:02;98578.75;;;18.43;90.04
7433;BME280;32233;49.500;7.764;2023-07-16T06:58:32;98573.84;;;17.79;94.57
7433;BME280;32233;49.500;7.764;2023-07-16T07:01:02;98580.47;;;18.32;93.88
7433;BME280;32233;49.500;7.764;2023-07-16T07:03:28;98574.06;;;18.12;92.88
7433;BME280;32233;49.500;7.764;2023-07-16T07:05:55;98574.94;;;19.10;88.31
7433;BME280;32233;49.500;7.764;2023-07-16T07:08:22;98575.06;;;18.93;86.74
7433;BME280;32233;49.500;7.764;2023-07-16T07:10:49;98579.13;;;17.91;90.54
7433;BME280;32233;49.500;7.764;2023-07-16T07:13:16;98578.78;;;20.21;78.39
7433;BME280;32233;49.500;7.764;2023-07-16T07:15:42;98576.38;;;18.69;83.80
7433;BME280;32233;49.500;7.764;2023-07-16T07:18:09;98580.06;;;20.13;78.65
7433;BME280;32233;49.500;7.764;2023-07-16T07:20:36;98578.81;;;21.09;72.91
7433;BME280;32233;49.500;7.764;2023-07-16T07:23:03;98580.44;;;21.05;70.14
7433;BME280;32233;49.500;7.764;2023-07-16T07:25:31;98586.78;;;19.41;75.52
7433;BME280;32233;49.500;7.764;2023-07-16T07:27:58;98591.38;;;19.78;76.37
7433;BME280;32233;49.500;7.764;2023-07-16T07:30:25;98580.50;;;21.76;63.36
7433;BME280;32233;49.500;7.764;2023-07-16T07:32:51;98583.81;;;20.12;73.73
7433;BME280;32233;49.500;7.764;2023-07-16T07:35:18;98578.34;;;21.53;70.54
7433;BME280;32233;49.500;7.764;2023-07-16T07:37:44;98579.41;;;23.28;62.42
7433;BME280;32233;49.500;7.764;2023-07-16T07:40:11;98573.84;;;22.59;60.37
7433;BME280;32233;49.500;7.764;2023-07-16T07:42:38;98568.53;;;24.25;55.92
7433;BME280;32233;49.500;7.764;2023-07-16T07:45:05;98575.69;;;24.83;53.11
7433;BME280;32233;49.500;7.764;2023-07-16T07:47:31;98571.91;;;24.12;52.38
7433;BME280;32233;49.500;7.764;2023-07-16T07:49:58;98578.84;;;23.94;53.24
7433;BME280;32233;49.500;7.764;2023-07-16T07:52:27;98575.59;;;22.09;58.41
7433;BME280;32233;49.500;7.764;2023-07-16T07:54:53;98591.66;;;20.24;63.60
7433;BME280;32233;49.500;7.764;2023-07-16T07:57:20;98589.00;;;19.82;69.20
7433;BME280;32233;49.500;7.764;2023-07-16T07:59:47;98587.34;;;19.43;74.32
7433;BME280;32233;49.500;7.764;2023-07-16T08:02:13;98597.31;;;18.50;78.97
7433;BME280;32233;49.500;7.764;2023-07-16T08:04:40;98592.56;;;18.57;75.52
7433;BME280;32233;49.500;7.764;2023-07-16T08:07:07;98587.59;;;18.88;70.09
7433;BME280;32233;49.500;7.764;2023-07-16T08:09:33;98591.38;;;18.26;78.12
7433;BME280;32233;49.500;7.764;2023-07-16T08:12:00;98596.84;;;18.14;79.96
7433;BME280;32233;49.500;7.764;2023-07-16T08:14:26;98592.94;;;18.22;78.65
7433;BME280;32233;49.500;7.764;2023-07-16T08:16:53;98599.72;;;18.29;80.70
7433;BME280;32233;49.500;7.764;2023-07-16T08:19:19;98599.91;;;18.23;75.68
7433;BME280;32233;49.500;7.764;2023-07-16T08:21:46;98593.00;;;20.74;64.27
7433;BME280;32233;49.500;7.764;2023-07-16T08:24:12;98588.16;;;20.23;66.16
7433;BME280;32233;49.500;7.764;2023-07-16T08:26:39;98585.97;;;20.15;63.60
7433;BME280;32233;49.500;7.764;2023-07-16T08:29:05;98589.50;;;18.92;68.18
7433;BME280;32233;49.500;7.764;2023-07-16T08:31:32;98595.19;;;18.52;70.77
7433;BME280;32233;49.500;7.764;2023-07-16T08:33:58;98592.34;;;18.80;77.00
7433;BME280;32233;49.500;7.764;2023-07-16T08:36:29;98594.72;;;20.43;66.97
7433;BME280;32233;49.500;7.764;2023-07-16T08:38:56;98598.41;;;19.84;69.00
7433;BME280;32233;49.500;7.764;2023-07-16T08:41:22;98596.94;;;20.51;65.73
7433;BME280;32233;49.500;7.764;2023-07-16T08:43:49;98602.16;;;20.25;69.53
7433;BME280;32233;49.500;7.764;2023-07-16T08:46:16;98594.13;;;20.31;67.14
7433;BME280;32233;49.500;7.764;2023-07-16T08:48:45;98603.22;;;19.87;68.95
7433;BME280;32233;49.500;7.764;2023-07-16T08:51:14;98605.50;;;20.00;68.48
7433;BME280;32233;49.500;7.764;2023-07-16T08:53:42;98599.09;;;19.69;70.75
7433;BME280;32233;49.500;7.764;2023-07-16T08:56:09;98600.66;;;19.38;71.84
7433;BME280;32233;49.500;7.764;2023-07-16T08:58:36;98605.34;;;19.48;70.28
7433;BME280;32233;49.500;7.764;2023-07-16T09:01:05;98598.56;;;19.13;67.68
7433;BME280;32233;49.500;7.764;2023-07-16T09:03:31;98607.94;;;18.89;70.25
7433;BME280;32233;49.500;7.764;2023-07-16T09:05:58;98601.47;;;18.85;70.39
7433;BME280;32233;49.500;7.764;2023-07-16T09:08:25;98598.53;;;19.67;64.21
7433;BME280;32233;49.500;7.764;2023-07-16T09:10:55;98595.47;;;20.33;64.03
7433;BME280;32233;49.500;7.764;2023-07-16T09:13:26;98590.09;;;20.91;58.27
7433;BME280;32233;49.500;7.764;2023-07-16T09:15:57;98581.88;;;21.43;60.79
7433;BME280;32233;49.500;7.764;2023-07-16T09:18:25;98588.81;;;21.24;56.80
7433;BME280;32233;49.500;7.764;2023-07-16T09:20:58;98593.88;;;21.10;59.14
7433;BME280;32233;49.500;7.764;2023-07-16T09:23:30;98604.94;;;21.29;59.83
7433;BME280;32233;49.500;7.764;2023-07-16T09:25:57;98605.72;;;21.19;56.91
7433;BME280;32233;49.500;7.764;2023-07-16T09:28:23;98615.59;;;20.83;56.33
7433;BME280;32233;49.500;7.764;2023-07-16T09:30:51;98607.25;;;20.80;60.30
7433;BME280;32233;49.500;7.764;2023-07-16T09:33:21;98603.28;;;21.08;57.05
7433;BME280;32233;49.500;7.764;2023-07-16T09:35:49;98599.06;;;21.32;61.17
7433;BME280;32233;49.500;7.764;2023-07-16T09:38:17;98596.38;;;21.63;57.06
7433;BME280;32233;49.500;7.764;2023-07-16T09:40:45;98585.88;;;21.71;56.99
7433;BME280;32233;49.500;7.764;2023-07-16T09:43:12;98592.31;;;21.86;52.85
7433;BME280;32233;49.500;7.764;2023-07-16T09:45:40;98596.34;;;21.83;56.19
7433;BME280;32233;49.500;7.764;2023-07-16T09:48:07;98603.59;;;21.32;52.90
7433;BME280;32233;49.500;7.764;2023-07-16T09:50:35;98592.88;;;21.52;54.52
7433;BME280;32233;49.500;7.764;2023-07-16T09:53:05;98595.56;;;21.93;54.45
7433;BME280;32233;49.500;7.764;2023-07-16T09:55:34;98597.13;;;22.19;54.28
7433;BME280;32233;49.500;7.764;2023-07-16T09:58:06;98574.47;;;22.36;53.69
7433;BME280;32233;49.500;7.764;2023-07-16T10:00:35;98583.91;;;22.33;54.18
7433;BME280;32233;49.500;7.764;2023-07-16T10:03:02;98585.22;;;22.41;53.20
7433;BME280;32233;49.500;7.764;2023-07-16T10:05:29;98592.81;;;22.23;53.66
7433;BME280;32233;49.500;7.764;2023-07-16T10:07:59;98590.81;;;22.60;54.63
7433;BME280;32233;49.500;7.764;2023-07-16T10:10:42;98588.66;;;22.57;52.62
7433;BME280;32233;49.500;7.764;2023-07-16T10:13:12;98584.34;;;22.56;49.59
7433;BME280;32233;49.500;7.764;2023-07-16T10:15:39;98579.66;;;22.77;50.31
7433;BME280;32233;49.500;7.764;2023-07-16T10:18:09;98582.72;;;22.60;50.96
7433;BME280;32233;49.500;7.764;2023-07-16T10:20:36;98591.09;;;22.53;49.40
7433;BME280;32233;49.500;7.764;2023-07-16T10:23:12;98578.59;;;22.13;49.87
7433;BME280;32233;49.500;7.764;2023-07-16T10:25:40;98583.59;;;22.50;50.19
7433;BME280;32233;49.500;7.764;2023-07-16T10:28:07;98585.03;;;22.82;46.77
7433;BME280;32233;49.500;7.764;2023-07-16T10:30:34;98589.78;;;23.05;44.12
7433;BME280;32233;49.500;7.764;2023-07-16T10:33:13;98578.50;;;23.03;45.22
7433;BME280;32233;49.500;7.764;2023-07-16T10:35:45;98585.59;;;22.79;46.59
7433;BME280;32233;49.500;7.764;2023-07-16T10:38:12;98582.63;;;22.80;48.18
7433;BME280;32233;49.500;7.764;2023-07-16T10:40:44;98583.94;;;23.32;46.25
7433;BME280;32233;49.500;7.764;2023-07-16T10:43:12;98576.78;;;23.52;44.11
7433;BME280;32233;49.500;7.764;2023-07-16T10:45:38;98583.41;;;23.35;47.34
7433;BME280;32233;49.500;7.764;2023-07-16T10:48:05;98576.34;;;24.27;46.23
7433;BME280;32233;49.500;7.764;2023-07-16T10:50:33;98575.06;;;23.95;47.32
7433;BME280;32233;49.500;7.764;2023-07-16T10:53:03;98586.00;;;23.06;47.22
7433;BME280;32233;49.500;7.764;2023-07-16T10:55:30;98579.53;;;23.07;45.38
7433;BME280;32233;49.500;7.764;2023-07-16T10:58:04;98577.66;;;23.42;46.84
7433;BME280;32233;49.500;7.764;2023-07-16T11:00:32;98576.25;;;23.84;45.19
7433;BME280;32233;49.500;7.764;2023-07-16T11:02:58;98581.75;;;23.34;44.08
7433;BME280;32233;49.500;7.764;2023-07-16T11:05:25;98573.16;;;23.95;43.32
7433;BME280;32233;49.500;7.764;2023-07-16T11:07:52;98572.50;;;23.45;44.66
7433;BME280;32233;49.500;7.764;2023-07-16T11:10:22;98578.94;;;22.66;48.64
7433;BME280;32233;49.500;7.764;2023-07-16T11:12:53;98571.47;;;23.76;45.26
7433;BME280;32233;49.500;7.764;2023-07-16T11:15:35;98567.88;;;23.85;44.04
7433;BME280;32233;49.500;7.764;2023-07-16T11:18:02;98578.03;;;23.30;44.73
7433;BME280;32233;49.500;7.764;2023-07-16T11:20:30;98577.81;;;23.21;44.79
7433;BME280;32233;49.500;7.764;2023-07-16T11:23:00;98574.16;;;23.76;45.15
7433;BME280;32233;49.500;7.764;2023-07-16T11:25:28;98558.66;;;23.57;42.21
7433;BME280;32233;49.500;7.764;2023-07-16T11:27:55;98581.50;;;22.27;47.11
7433;BME280;32233;49.500;7.764;2023-07-16T11:30:23;98582.31;;;22.27;47.78
7433;BME280;32233;49.500;7.764;2023-07-16T11:32:51;98575.94;;;22.67;47.07
7433;BME280;32233;49.500;7.764;2023-07-16T11:35:19;98579.97;;;22.75;47.07
7433;BME280;32233;49.500;7.764;2023-07-16T11:37:47;98577.03;;;23.89;45.85
7433;BME280;32233;49.500;7.764;2023-07-16T11:40:18;98574.91;;;24.10;44.51
7433;BME280;32233;49.500;7.764;2023-07-16T11:42:45;98566.06;;;24.05;44.94
7433;BME280;32233;49.500;7.764;2023-07-16T11:45:20;98567.59;;;24.11;42.46
7433;BME280;32233;49.500;7.764;2023-07-16T11:47:47;98568.59;;;23.62;45.67
7433;BME280;32233;49.500;7.764;2023-07-16T11:50:13;98568.00;;;23.70;45.17
7433;BME280;32233;49.500;7.764;2023-07-16T11:52:40;98579.06;;;23.39;44.31
7433;BME280;32233;49.500;7.764;2023-07-16T11:57:34;98569.97;;;25.74;39.38
7433;BME280;32233;49.500;7.764;2023-07-16T12:00:03;98560.66;;;24.29;39.10
7433;BME280;32233;49.500;7.764;2023-07-16T12:02:30;98561.78;;;23.01;45.05
7433;BME280;32233;49.500;7.764;2023-07-16T12:04:56;98564.72;;;23.44;44.72
7433;BME280;32233;49.500;7.764;2023-07-16T12:07:33;98558.38;;;24.17;42.76
7433;BME280;32233;49.500;7.764;2023-07-16T12:10:03;98551.19;;;25.63;37.80
7433;BME280;32233;49.500;7.764;2023-07-16T12:12:30;98549.38;;;25.07;38.07
7433;BME280;32233;49.500;7.764;2023-07-16T12:14:56;98544.97;;;25.30;39.04
7433;BME280;32233;49.500;7.764;2023-07-16T12:17:23;98551.56;;;25.05;40.71
7433;BME280;32233;49.500;7.764;2023-07-16T12:19:50;98548.63;;;23.92;42.89
7433;BME280;32233;49.500;7.764;2023-07-16T12:22:17;98537.97;;;25.10;40.99
7433;BME280;32233;49.500;7.764;2023-07-16T12:24:45;98544.09;;;23.87;43.73
7433;BME280;32233;49.500;7.764;2023-07-16T12:27:13;98548.41;;;24.60;41.70
7433;BME280;32233;49.500;7.764;2023-07-16T12:29:39;98546.16;;;23.95;43.06
7433;BME280;32233;49.500;7.764;2023-07-16T12:32:06;98544.91;;;24.60;43.50
7433;BME280;32233;49.500;7.764;2023-07-16T12:34:35;98537.66;;;25.63;38.48
7433;BME280;32233;49.500;7.764;2023-07-16T12:37:03;98530.47;;;25.73;37.85
7433;BME280;32233;49.500;7.764;2023-07-16T12:39:29;98534.56;;;27.39;35.86
7433;BME280;32233;49.500;7.764;2023-07-16T12:41:56;98536.19;;;26.81;35.76
7433;BME280;32233;49.500;7.764;2023-07-16T12:44:23;98539.78;;;24.77;38.39
7433;BME280;32233;49.500;7.764;2023-07-16T12:46:49;98536.91;;;25.11;38.35
7433;BME280;32233;49.500;7.764;2023-07-16T12:49:16;98530.81;;;26.90;38.13
7433;BME280;32233;49.500;7.764;2023-07-16T12:51:43;98532.31;;;27.32;35.85
7433;BME280;32233;49.500;7.764;2023-07-16T12:54:09;98521.03;;;25.56;38.63
7433;BME280;32233;49.500;7.764;2023-07-16T12:56:36;98528.47;;;24.94;39.79
7433;BME280;32233;49.500;7.764;2023-07-16T12:59:02;98535.03;;;24.69;40.32
7433;BME280;32233;49.500;7.764;2023-07-16T13:01:29;98540.72;;;24.49;41.19
7433;BME280;32233;49.500;7.764;2023-07-16T13:03:57;98527.09;;;24.96;40.17
7433;BME280;32233;49.500;7.764;2023-07-16T13:06:24;98523.38;;;25.11;42.37
7433;BME280;32233;49.500;7.764;2023-07-16T13:08:50;98532.63;;;24.01;46.64
7433;BME280;32233;49.500;7.764;2023-07-16T13:11:17;98533.28;;;23.58;44.12
7433;BME280;32233;49.500;7.764;2023-07-16T13:13:44;98534.66;;;24.57;42.99